createdAt,value
2022-11-11T00:00:10.034Z,2.30
2022-11-11T00:02:57.481Z,2.33
2022-11-11T00:05:46.697Z,2.17
2022-11-11T00:08:34.231Z,2.23
2022-11-11T00:11:21.925Z,2.00
2022-11-11T00:14:09.396Z,1.97
2022-11-11T00:17:14.137Z,1.90
2022-11-11T00:20:22.162Z,2.03
2022-11-11T00:23:40.221Z,2.13
2022-11-11T00:26:44.491Z,2.00
2022-11-11T00:29:32.093Z,2.40
2022-11-11T00:32:27.646Z,2.10
2022-11-11T00:35:32.934Z,2.50
2022-11-11T00:38:39.770Z,3.07
2022-11-11T00:41:27.930Z,2.10
2022-11-11T00:44:15.988Z,2.50
2022-11-11T00:47:20.592Z,2.53
2022-11-11T00:50:30.034Z,2.57
2022-11-11T00:53:24.810Z,2.67
2022-11-11T00:56:15.261Z,3.13
2022-11-11T00:59:03.003Z,2.97
2022-11-11T01:01:50.692Z,3.60
2022-11-11T01:04:38.569Z,4.10
2022-11-11T01:07:26.230Z,4.10
2022-11-11T01:10:34.237Z,4.43
2022-11-11T01:13:24.981Z,4.67
2022-11-11T01:16:16.412Z,5.47
2022-11-11T01:19:04.699Z,5.90
2022-11-11T01:21:52.492Z,5.23
2022-11-11T01:24:40.047Z,5.87
2022-11-11T01:27:27.415Z,5.60
2022-11-11T01:30:16.752Z,5.73
2022-11-11T01:33:05.146Z,5.10
2022-11-11T01:35:52.699Z,5.50
2022-11-11T01:38:42.806Z,5.50
2022-11-11T01:41:35.132Z,6.20
2022-11-11T01:44:44.787Z,5.80
2022-11-11T01:48:23.859Z,5.50
2022-11-11T01:51:02.137Z,4.97
2022-11-11T01:53:57.622Z,4.90
2022-11-11T01:56:49.117Z,5.43
2022-11-11T01:59:39.088Z,6.50
2022-11-11T02:02:35.095Z,5.73
2022-11-11T02:05:53.729Z,5.83
2022-11-11T02:08:41.439Z,6.23
2022-11-11T02:11:47.129Z,5.70
2022-11-11T02:14:37.613Z,6.03
2022-11-11T02:17:26.534Z,5.53
2022-11-11T02:20:21.020Z,6.13
2022-11-11T02:23:12.815Z,5.57
2022-11-11T02:26:03.162Z,5.73
2022-11-11T02:28:51.439Z,5.93
2022-11-11T02:31:39.361Z,5.43
2022-11-11T02:34:32.516Z,5.40
2022-11-11T02:37:24.076Z,5.60
2022-11-11T02:40:13.725Z,6.17
2022-11-11T02:43:03.290Z,6.90
2022-11-11T02:45:51.481Z,6.47
2022-11-11T02:48:39.307Z,6.23
2022-11-11T02:51:26.785Z,5.93
2022-11-11T02:54:14.287Z,6.50
2022-11-11T02:57:11.020Z,6.17
2022-11-11T03:00:02.788Z,6.13
2022-11-11T03:02:51.356Z,7.23
2022-11-11T03:05:38.857Z,7.37
2022-11-11T03:08:26.357Z,6.50
2022-11-11T03:11:14.121Z,6.60
2022-11-11T03:14:02.714Z,6.00
2022-11-11T03:17:09.564Z,6.37
2022-11-11T03:20:17.954Z,6.03
2022-11-11T03:23:07.662Z,6.50
2022-11-11T03:25:58.247Z,6.27
2022-11-11T03:28:46.187Z,6.87
2022-11-11T03:31:33.716Z,6.50
2022-11-11T03:34:23.146Z,6.10
2022-11-11T03:37:29.550Z,6.37
2022-11-11T03:40:18.059Z,6.40
2022-11-11T03:43:06.516Z,5.67
2022-11-11T03:45:55.835Z,5.77
2022-11-11T03:48:43.363Z,5.80
2022-11-11T03:51:32.803Z,5.57
2022-11-11T03:54:20.337Z,5.47
2022-11-11T03:57:25.456Z,6.13
2022-11-11T04:00:15.038Z,5.73
2022-11-11T04:03:25.256Z,5.53
2022-11-11T04:06:30.402Z,5.67
2022-11-11T04:09:36.660Z,5.47
2022-11-11T04:12:25.056Z,6.20
2022-11-11T04:15:30.053Z,6.03
2022-11-11T04:18:17.180Z,5.03
2022-11-11T04:21:22.271Z,5.30
2022-11-11T04:24:23.998Z,5.83
2022-11-11T04:27:13.874Z,6.27
2022-11-11T04:30:00.239Z,4.73
2022-11-11T04:32:47.796Z,5.57
2022-11-11T04:35:35.830Z,5.27
2022-11-11T04:38:40.470Z,6.63
2022-11-11T04:41:40.841Z,5.20
2022-11-11T04:45:01.328Z,6.00
2022-11-11T04:47:56.412Z,5.17
2022-11-11T04:50:45.341Z,5.97
2022-11-11T04:53:33.585Z,5.67
2022-11-11T04:56:40.880Z,5.67
2022-11-11T04:59:27.978Z,5.50
2022-11-11T05:02:34.485Z,5.63
2022-11-11T05:05:22.372Z,5.30
2022-11-11T05:08:27.670Z,6.13
2022-11-11T05:11:15.715Z,5.80
2022-11-11T05:14:21.761Z,5.83
2022-11-11T05:17:28.375Z,5.50
2022-11-11T05:20:38.903Z,5.60
2022-11-11T05:23:47.705Z,5.33
2022-11-11T05:26:34.062Z,5.93
2022-11-11T05:29:21.055Z,6.80
2022-11-11T05:32:09.919Z,5.47
2022-11-11T05:34:57.853Z,7.13
2022-11-11T05:38:07.041Z,6.87
2022-11-11T05:40:56.880Z,6.37
2022-11-11T05:43:44.038Z,7.10
2022-11-11T05:46:31.712Z,5.60
2022-11-11T05:49:19.297Z,6.30
2022-11-11T05:52:08.114Z,5.57
2022-11-11T05:54:57.191Z,6.30
2022-11-11T05:57:44.840Z,6.30
2022-11-11T06:00:31.943Z,6.50
2022-11-11T06:03:19.052Z,5.70
2022-11-11T06:06:07.352Z,6.67
2022-11-11T06:08:55.060Z,7.43
2022-11-11T06:11:43.909Z,6.87
2022-11-11T06:14:31.102Z,6.43
2022-11-11T06:17:18.411Z,8.03
2022-11-11T06:20:06.534Z,6.30
2022-11-11T06:23:00.488Z,7.10
2022-11-11T06:26:05.836Z,6.27
2022-11-11T06:28:55.814Z,6.07
2022-11-11T06:31:43.266Z,6.30
2022-11-11T06:34:31.217Z,6.00
2022-11-11T06:37:18.195Z,6.63
2022-11-11T06:40:07.041Z,5.97
2022-11-11T06:42:54.733Z,6.23
2022-11-11T06:45:43.526Z,6.17
2022-11-11T06:48:31.288Z,5.93
2022-11-11T06:51:19.184Z,7.20
2022-11-11T06:54:06.949Z,6.17
2022-11-11T06:56:54.408Z,5.63
2022-11-11T06:59:42.499Z,6.33
2022-11-11T07:02:31.542Z,6.27
2022-11-11T07:05:18.896Z,6.40
2022-11-11T07:08:08.427Z,5.57
2022-11-11T07:10:56.087Z,5.93
2022-11-11T07:13:43.652Z,6.30
2022-11-11T07:16:31.132Z,6.27
2022-11-11T07:19:20.197Z,6.73
2022-11-11T07:22:08.009Z,6.40
2022-11-11T07:24:56.004Z,6.13
2022-11-11T07:27:44.621Z,6.30
2022-11-11T07:30:32.372Z,5.97
2022-11-11T07:33:24.353Z,6.40
2022-11-11T07:36:13.769Z,5.97
2022-11-11T07:39:06.135Z,6.87
2022-11-11T07:41:55.757Z,5.33
2022-11-11T07:44:49.091Z,6.20
2022-11-11T07:47:37.020Z,6.33
2022-11-11T07:50:25.009Z,6.63
2022-11-11T07:53:13.856Z,6.43
2022-11-11T07:56:01.622Z,6.50
2022-11-11T07:58:49.042Z,6.13
2022-11-11T08:01:36.850Z,6.23
2022-11-11T08:04:24.227Z,7.30
2022-11-11T08:07:12.124Z,6.43
2022-11-11T08:10:00.935Z,6.80
2022-11-11T08:13:06.210Z,5.80
2022-11-11T08:15:53.744Z,6.77
2022-11-11T08:18:41.132Z,6.67
2022-11-11T08:21:29.537Z,7.73
2022-11-11T08:27:28.559Z,6.70
2022-11-11T08:30:17.030Z,7.43
2022-11-11T08:36:20.478Z,7.87
2022-11-11T08:39:09.016Z,7.20
2022-11-11T08:41:56.881Z,7.13
2022-11-11T08:44:45.982Z,6.53
2022-11-11T08:47:33.589Z,7.40
2022-11-11T08:50:20.944Z,9.60
2022-11-11T08:53:09.191Z,8.70
2022-11-11T08:55:56.793Z,11.07
2022-11-11T08:58:44.116Z,8.43
2022-11-11T09:01:33.203Z,9.40
2022-11-11T09:07:29.026Z,7.80
2022-11-11T09:10:17.274Z,8.30
2022-11-11T09:13:05.108Z,10.60
2022-11-11T09:15:55.010Z,9.33
2022-11-11T09:18:43.828Z,9.00
2022-11-11T09:21:31.308Z,8.10
2022-11-11T09:24:19.337Z,8.40
2022-11-11T09:27:06.570Z,8.00
2022-11-11T09:29:54.775Z,8.67
2022-11-11T09:32:42.485Z,8.17
2022-11-11T09:35:32.065Z,8.60
2022-11-11T09:38:19.718Z,8.07
2022-11-11T09:41:17.105Z,8.23
2022-11-11T09:44:05.544Z,7.63
2022-11-11T09:46:56.891Z,8.30
2022-11-11T09:49:53.544Z,7.57
2022-11-11T09:52:47.498Z,8.17
2022-11-11T09:55:40.087Z,7.40
2022-11-11T09:58:30.362Z,8.43
2022-11-11T10:01:21.658Z,7.43
2022-11-11T10:04:24.691Z,8.53
2022-11-11T10:07:19.866Z,7.43
2022-11-11T10:10:15.982Z,7.53
2022-11-11T10:13:03.386Z,7.20
2022-11-11T10:16:00.109Z,8.20
2022-11-11T10:18:58.105Z,7.83
2022-11-11T10:22:11.828Z,7.47
2022-11-11T10:25:08.619Z,7.70
2022-11-11T10:28:00.143Z,7.53
2022-11-11T10:30:47.968Z,8.83
2022-11-11T10:33:42.435Z,7.93
2022-11-11T10:36:36.975Z,8.40
2022-11-11T10:39:29.153Z,7.97
2022-11-11T10:42:19.099Z,8.07
2022-11-11T10:45:16.145Z,7.87
2022-11-11T10:48:06.428Z,9.63
2022-11-11T10:50:56.303Z,7.23
2022-11-11T10:53:50.351Z,7.40
2022-11-11T10:56:39.838Z,8.03
2022-11-11T10:59:29.434Z,8.70
2022-11-11T11:02:22.657Z,7.70
2022-11-11T11:05:12.917Z,8.13
2022-11-11T11:08:03.838Z,7.83
2022-11-11T11:10:55.236Z,8.40
2022-11-11T11:13:45.321Z,9.17
2022-11-11T11:16:37.121Z,8.10
2022-11-11T11:19:27.440Z,8.30
2022-11-11T11:22:15.127Z,8.27
2022-11-11T11:25:12.490Z,7.93
2022-11-11T11:28:10.965Z,8.97
2022-11-11T11:31:02.816Z,8.50
2022-11-11T11:33:55.194Z,8.77
2022-11-11T11:36:44.178Z,9.17
2022-11-11T11:39:35.760Z,9.53
2022-11-11T11:42:33.572Z,9.67
2022-11-11T11:45:26.440Z,9.60
2022-11-11T11:48:31.500Z,9.40
2022-11-11T11:51:26.521Z,9.87
2022-11-11T11:54:32.320Z,9.90
2022-11-11T11:57:29.109Z,10.80
2022-11-11T12:00:20.123Z,9.37
2022-11-11T12:03:26.106Z,9.80
2022-11-11T12:06:17.948Z,13.87
2022-11-11T12:09:11.924Z,10.60
2022-11-11T12:12:05.571Z,9.63
2022-11-11T12:15:04.480Z,10.77
2022-11-11T12:17:59.280Z,9.97
2022-11-11T12:20:52.788Z,9.70
2022-11-11T12:23:55.638Z,10.00
2022-11-11T12:26:47.600Z,9.83
2022-11-11T12:29:45.874Z,10.03
2022-11-11T12:32:48.513Z,10.47
2022-11-11T12:35:49.166Z,11.87
2022-11-11T12:38:55.904Z,9.10
2022-11-11T12:41:54.454Z,8.93
2022-11-11T12:44:50.963Z,9.57
2022-11-11T12:47:44.075Z,9.17
2022-11-11T12:50:37.465Z,8.30
2022-11-11T12:53:32.611Z,9.43
2022-11-11T12:56:26.099Z,8.57
2022-11-11T12:59:19.242Z,8.70
2022-11-11T13:02:19.490Z,8.90
2022-11-11T13:05:12.233Z,9.30
2022-11-11T13:08:14.180Z,9.00
2022-11-11T13:11:08.037Z,8.33
2022-11-11T13:14:06.332Z,8.23
2022-11-11T13:16:54.737Z,9.27
2022-11-11T13:19:47.297Z,9.10
2022-11-11T13:22:35.235Z,8.60
2022-11-11T13:25:25.456Z,7.67
2022-11-11T13:28:18.763Z,8.17
2022-11-11T13:31:16.853Z,8.50
2022-11-11T13:34:07.021Z,9.10
2022-11-11T13:36:57.648Z,9.50
2022-11-11T13:39:47.930Z,8.30
2022-11-11T13:42:40.278Z,8.90
2022-11-11T13:45:30.832Z,9.10
2022-11-11T13:48:23.206Z,9.20
2022-11-11T13:51:21.724Z,9.17
2022-11-11T13:54:23.733Z,8.70
2022-11-11T13:57:20.696Z,7.67
2022-11-11T14:00:26.590Z,9.40
2022-11-11T14:03:35.290Z,9.23
2022-11-11T14:06:55.669Z,8.77
2022-11-11T14:10:06.180Z,9.27
2022-11-11T14:12:55.206Z,9.50
2022-11-11T14:15:44.472Z,9.43
2022-11-11T14:18:55.945Z,9.33
2022-11-11T14:21:58.700Z,9.00
2022-11-11T14:24:48.061Z,9.57
2022-11-11T14:27:37.256Z,10.50
2022-11-11T14:30:35.423Z,10.03
2022-11-11T14:33:41.482Z,11.27
2022-11-11T14:36:34.031Z,9.97
2022-11-11T14:39:32.238Z,9.67
2022-11-11T14:42:46.030Z,10.17
2022-11-11T14:46:03.783Z,10.53
2022-11-11T14:48:57.852Z,11.10
2022-11-11T14:51:59.864Z,11.30
2022-11-11T14:55:01.813Z,10.83
2022-11-11T14:57:52.944Z,11.17
2022-11-11T15:00:47.851Z,12.90
2022-11-11T15:03:39.030Z,12.03
2022-11-11T15:06:28.086Z,13.87
2022-11-11T15:09:44.865Z,15.50
2022-11-11T15:13:00.114Z,13.17
2022-11-11T15:15:54.275Z,13.07
2022-11-11T15:19:16.553Z,17.93
2022-11-11T15:22:11.680Z,15.07
2022-11-11T15:25:09.221Z,14.30
2022-11-11T15:27:59.783Z,13.07
2022-11-11T15:30:59.645Z,14.43
2022-11-11T15:33:54.968Z,13.37
2022-11-11T15:36:52.683Z,13.97
2022-11-11T15:39:42.718Z,13.37
2022-11-11T15:42:32.694Z,13.17
2022-11-11T15:45:26.316Z,13.60
2022-11-11T15:48:25.357Z,13.27
2022-11-11T15:51:24.097Z,13.37
2022-11-11T15:54:22.589Z,13.63
2022-11-11T15:57:30.720Z,14.17
2022-11-11T16:00:30.199Z,13.70
2022-11-11T16:03:19.249Z,13.30
2022-11-11T16:06:09.306Z,13.77
2022-11-11T16:08:57.703Z,14.13
2022-11-11T16:11:45.565Z,14.30
2022-11-11T16:14:36.911Z,14.47
2022-11-11T16:17:28.838Z,13.23
2022-11-11T16:20:17.943Z,13.43
2022-11-11T16:23:08.140Z,14.40
2022-11-11T16:25:55.689Z,19.97
2022-11-11T16:28:46.205Z,14.37
2022-11-11T16:31:45.090Z,24.37
2022-11-11T16:34:44.470Z,14.10
2022-11-11T16:37:32.432Z,14.63
2022-11-11T16:40:44.490Z,14.90
2022-11-11T16:43:33.146Z,14.67
2022-11-11T16:46:41.625Z,15.10
2022-11-11T16:49:32.459Z,15.03
2022-11-11T16:52:24.935Z,13.97
2022-11-11T16:55:18.204Z,13.80
2022-11-11T16:58:12.490Z,14.30
2022-11-11T17:01:03.985Z,15.17
2022-11-11T17:03:55.977Z,16.37
2022-11-11T17:06:56.353Z,17.47
2022-11-11T17:09:45.356Z,15.57
2022-11-11T17:12:33.427Z,14.63
2022-11-11T17:15:22.003Z,14.70
2022-11-11T17:18:10.312Z,15.23
2022-11-11T17:20:57.781Z,15.60
2022-11-11T17:23:45.691Z,14.27
2022-11-11T17:26:34.797Z,15.10
2022-11-11T17:29:22.438Z,13.83
2022-11-11T17:32:10.334Z,15.60
2022-11-11T17:34:57.987Z,15.30
2022-11-11T17:37:45.952Z,14.33
2022-11-11T17:40:33.108Z,15.07
2022-11-11T17:43:22.322Z,13.23
2022-11-11T17:46:09.595Z,12.47
2022-11-11T17:48:57.670Z,12.33
2022-11-11T17:51:45.195Z,15.17
2022-11-11T17:54:32.268Z,15.60
2022-11-11T17:57:19.837Z,14.77
2022-11-11T18:00:10.664Z,17.67
2022-11-11T18:02:58.364Z,12.90
2022-11-11T18:05:45.332Z,14.17
2022-11-11T18:08:34.782Z,13.60
2022-11-11T18:11:22.583Z,12.30
2022-11-11T18:14:11.099Z,12.33
2022-11-11T18:16:59.453Z,11.13
2022-11-11T18:19:46.857Z,11.23
2022-11-11T18:22:34.506Z,11.20
2022-11-11T18:25:21.628Z,11.20
2022-11-11T18:28:09.639Z,10.37
2022-11-11T18:31:06.112Z,10.27
2022-11-11T18:33:55.063Z,10.60
2022-11-11T18:36:42.612Z,11.33
2022-11-11T18:39:30.650Z,9.70
2022-11-11T18:42:18.413Z,9.23
2022-11-11T18:45:06.388Z,9.83
2022-11-11T18:47:53.915Z,9.27
2022-11-11T18:50:42.756Z,8.63
2022-11-11T18:53:32.082Z,8.10
2022-11-11T18:56:21.427Z,8.43
2022-11-11T18:59:09.162Z,8.83
2022-11-11T19:01:56.648Z,8.23
2022-11-11T19:04:44.419Z,7.27
2022-11-11T19:07:33.494Z,7.67
2022-11-11T19:10:21.347Z,7.17
2022-11-11T19:13:09.199Z,7.43
2022-11-11T19:15:57.347Z,8.00
2022-11-11T19:18:44.626Z,6.43
2022-11-11T19:21:33.317Z,7.37
2022-11-11T19:24:22.714Z,6.90
2022-11-11T19:27:09.963Z,7.07
2022-11-11T19:29:57.546Z,6.60
2022-11-11T19:32:46.064Z,6.47
2022-11-11T19:35:33.458Z,6.43
2022-11-11T19:38:20.750Z,5.67
2022-11-11T19:41:11.218Z,6.00
2022-11-11T19:43:59.654Z,6.40
2022-11-11T19:46:46.855Z,6.83
2022-11-11T19:49:34.075Z,6.37
2022-11-11T19:52:22.101Z,5.97
2022-11-11T19:55:09.680Z,6.03
2022-11-11T19:57:58.555Z,6.20
2022-11-11T20:00:45.871Z,5.00
2022-11-11T20:03:35.880Z,5.47
2022-11-11T20:06:26.696Z,5.50
2022-11-11T20:09:15.236Z,5.13
2022-11-11T20:12:02.357Z,5.90
2022-11-11T20:14:51.299Z,5.30
2022-11-11T20:17:38.775Z,5.60
2022-11-11T20:20:25.684Z,5.57
2022-11-11T20:23:12.838Z,5.10
2022-11-11T20:26:05.879Z,5.20
2022-11-11T20:28:57.514Z,5.47
2022-11-11T20:31:46.421Z,6.63
2022-11-11T20:34:34.829Z,6.30
2022-11-11T20:37:22.172Z,5.53
2022-11-11T20:40:10.785Z,6.03
2022-11-11T20:43:00.384Z,6.27
2022-11-11T20:45:47.635Z,6.00
2022-11-11T20:48:37.252Z,5.90
2022-11-11T20:51:25.340Z,6.27
2022-11-11T20:54:12.777Z,7.90
2022-11-11T20:56:59.889Z,5.67
2022-11-11T20:59:47.145Z,7.37
2022-11-11T21:02:34.650Z,7.17
2022-11-11T21:05:23.565Z,8.27
2022-11-11T21:08:11.122Z,9.27
2022-11-11T21:10:59.181Z,6.17
2022-11-11T21:13:48.133Z,7.20
2022-11-11T21:16:35.619Z,11.30
2022-11-11T21:19:22.984Z,7.70
2022-11-11T21:22:11.743Z,6.40
2022-11-11T21:24:59.727Z,5.77
2022-11-11T21:27:47.070Z,6.60
2022-11-11T21:30:35.011Z,5.60
2022-11-11T21:33:22.177Z,7.53
2022-11-11T21:36:11.737Z,7.13
2022-11-11T21:39:02.308Z,7.43
2022-11-11T21:41:52.811Z,8.37
2022-11-11T21:44:40.997Z,7.93
2022-11-11T21:47:28.272Z,9.00
2022-11-11T21:50:15.783Z,8.00
2022-11-11T21:53:03.257Z,9.63
2022-11-11T21:55:51.976Z,9.80
2022-11-11T21:58:39.233Z,10.37
2022-11-11T22:01:30.364Z,8.97
2022-11-11T22:04:18.618Z,9.50
2022-11-11T22:07:06.128Z,10.47
2022-11-11T22:09:53.938Z,10.70
2022-11-11T22:12:43.222Z,9.70
2022-11-11T22:15:31.312Z,11.20
2022-11-11T22:18:18.837Z,11.23
2022-11-11T22:21:07.772Z,11.33
2022-11-11T22:23:58.925Z,10.03
2022-11-11T22:26:47.033Z,9.67
2022-11-11T22:29:36.279Z,11.37
2022-11-11T22:32:24.174Z,11.23
2022-11-11T22:35:11.927Z,10.43
2022-11-11T22:37:59.104Z,10.17
2022-11-11T22:40:46.549Z,11.00
2022-11-11T22:43:58.612Z,10.30
2022-11-11T22:46:47.947Z,10.63
2022-11-11T22:49:35.834Z,10.37
2022-11-11T22:52:23.338Z,10.53
2022-11-11T22:55:10.463Z,10.83
2022-11-11T22:57:57.822Z,11.23
2022-11-11T23:00:45.789Z,10.23
2022-11-11T23:03:39.107Z,10.33
2022-11-11T23:06:27.782Z,10.67
2022-11-11T23:09:15.517Z,10.70
2022-11-11T23:12:02.866Z,10.30
2022-11-11T23:14:50.478Z,10.23
2022-11-11T23:17:38.431Z,11.17
2022-11-11T23:20:27.097Z,10.53
2022-11-11T23:23:14.657Z,10.67
2022-11-11T23:26:04.079Z,10.30
2022-11-11T23:28:51.947Z,10.97
2022-11-11T23:31:39.565Z,9.60
2022-11-11T23:34:26.769Z,10.33
2022-11-11T23:37:15.687Z,10.50
2022-11-11T23:40:03.597Z,10.60
2022-11-11T23:42:50.877Z,9.87
2022-11-11T23:45:40.609Z,10.23
2022-11-11T23:48:29.024Z,9.93
2022-11-11T23:51:18.136Z,9.33
2022-11-11T23:54:07.264Z,8.63
2022-11-11T23:56:55.131Z,9.27
2022-11-11T23:59:42.233Z,9.17
